Impacts METAR Board
IDs:

KLAX - Los Angeles Intl, CA, US

Updated at: 1300 UTC 13 Dec 2018
Potential Impact None Slight Moderate High
Time 13/01Z 13/02Z 13/03Z 13/04Z 13/05Z 13/06Z 13/07Z 13/08Z 13/09Z 13/10Z 13/11Z 13/12Z 13/13Z
Temp62 61 60 60 58 59 57 59 56 52 52 51 52
Dewpt54 54 54 54 53 54 53 54 51 50 49 47 47
Altim30.12 30.15 30.16 30.18 30.18 30.20 30.19 30.18 30.18 30.19 30.19 30.19 30.20
VIS10 10 10 9 9 8 10 10 10 9 7 9 9
CIG-- -- -- -- -- -- -- -- -- -- -- -- --
CoverFEWCLRCLRCLRFEWCLRFEWFEWFEWFEWFEWFEWFEW
FltCatVFRVFRVFRVFRVFRVFRVFRVFRVFRVFRVFRVFRVFR
WX------------MIFGMIFGMIFG--------
WDir00140060000010060050
WSpd4 0 3 3 3 3 0 4 3 4 5 0 3
WGst-- -- -- -- -- -- -- -- -- -- -- -- --
Raw hourly METARs
KLAX 130053Z VRB04KT 10SM FEW200 17/12 A3012 RMK AO2 SLP198 T01670122
KLAX 130153Z 00000KT 10SM CLR 16/12 A3015 RMK AO2 SLP209 T01610122
KLAX 130253Z 14003KT 10SM CLR 16/12 A3016 RMK AO2 SLP213 T01560122 51020
KLAX 130353Z VRB03KT 9SM CLR 16/12 A3018 RMK AO2 SLP221 T01560122
KLAX 130453Z 06003KT 9SM FEW200 14/12 A3018 RMK AO2 SLP220 T01440117
KLAX 130553Z VRB03KT 8SM CLR 15/12 A3020 RMK AO2 SLP224 T01500122 10172 20139 51011
KLAX 130653Z 00000KT 10SM MIFG FEW016 FEW200 14/12 A3019 RMK AO2 SLP222 T01390117
KLAX 130753Z VRB04KT 10SM MIFG FEW014 FEW200 15/12 A3018 RMK AO2 SLP219 T01500122 401830111
KLAX 130853Z VRB03KT 10SM MIFG FEW014 FEW200 13/11 A3018 RMK AO2 SLP220 T01330106 56005
KLAX 130953Z 10004KT 9SM FEW012 FEW200 11/10 A3019 RMK AO2 SLP221 T01110100
KLAX 131053Z 06005KT 7SM FEW012 FEW200 11/09 A3019 RMK AO2 SLP221 T01110094
KLAX 131153Z 00000KT 9SM FEW012 FEW200 11/08 A3019 RMK AO2 SLP222 T01060083 10150 20106 51002
KLAX 131253Z 05003KT 9SM FEW012 FEW200 11/08 A3020 RMK AO2 SLP225 T01110083



Page loaded:  13:35 UTC  |   05:35 AM Pacific  |   06:35 AM Mountain  |   07:35 AM Central  |   08:35 AM Eastern

 

ADVISORIES

FORECASTS

FORECASTS

OBSERVATIONS

USER TOOLS

ABOUT US